Time;durP1;ratioP1;P1;durP2;ratioP2;P2;SDS_P1;SDS_P2;PMS_P1;PMS_P2;Temp;Humidity;BMP_temperature;BMP_pressure;BME280_temperature;BME280_humidity;BME280_pressure;Samples;Min_cycle;Max_cycle;Signal;HPM_P1;HPM_P2
2020/12/06 00:01:30;;;;;;;16.47;11.93;;;;;;;;;;5048270;28;20178;-72
2020/12/06 00:03:56;;;;;;;13.47;10.70;;;;;;;;;;5053005;28;20169;-72
2020/12/06 00:06:21;;;;;;;18.80;11.77;;;;;;;;;;5047156;28;20205;-72
2020/12/06 00:08:47;;;;;;;14.57;11.27;;;;;;;;;;5045375;28;20739;-72
2020/12/06 00:11:13;;;;;;;16.33;12.13;;;;;;;;;;5046295;28;20179;-73
2020/12/06 00:13:38;;;;;;;13.87;10.87;;;;;;;;;;5047480;28;20691;-72
2020/12/06 00:16:04;;;;;;;16.00;12.50;;;;;;;;;;5043947;28;20178;-72
2020/12/06 00:18:29;;;;;;;17.13;11.20;;;;;;;;;;5049034;28;20256;-72
2020/12/06 00:20:54;;;;;;;15.40;11.03;;;;;;;;;;5056781;28;20186;-72
2020/12/06 00:23:20;;;;;;;19.67;11.93;;;;;;;;;;5069606;28;20194;-72
2020/12/06 00:25:49;;;;;;;20.57;12.30;;;;;;;;;;5065666;28;20177;-72
2020/12/06 00:28:14;;;;;;;17.80;12.87;;;;;;;;;;5057132;28;20192;-72
2020/12/06 00:30:39;;;;;;;15.60;11.60;;;;;;;;;;5057909;28;20711;-72
2020/12/06 00:33:04;;;;;;;16.77;11.87;;;;;;;;;;5049616;28;20198;-72
2020/12/06 00:35:29;;;;;;;17.43;12.17;;;;;;;;;;5054589;28;20188;-72
2020/12/06 00:37:54;;;;;;;16.23;12.30;;;;;;;;;;5046164;28;20254;-72
2020/12/06 00:40:20;;;;;;;15.73;11.87;;;;;;;;;;5048455;28;20559;-72
2020/12/06 00:42:45;;;;;;;17.57;11.90;;;;;;;;;;5038408;28;20347;-72
2020/12/06 00:45:10;;;;;;;15.93;12.23;;;;;;;;;;5048130;28;20552;-72
2020/12/06 00:47:36;;;;;;;15.80;12.90;;;;;;;;;;5038503;28;20179;-72
2020/12/06 00:50:02;;;;;;;15.93;12.00;;;;;;;;;;5041993;28;20182;-72
2020/12/06 00:52:27;;;;;;;17.27;12.53;;;;;;;;;;5041920;28;20288;-72
2020/12/06 00:54:53;;;;;;;19.50;13.10;;;;;;;;;;5050717;28;20269;-72
2020/12/06 00:57:18;;;;;;;15.87;11.40;;;;;;;;;;5039765;28;20610;-72
2020/12/06 00:59:43;;;;;;;16.63;12.07;;;;;;;;;;5043110;28;20216;-72
2020/12/06 01:02:10;;;;;;;16.00;11.70;;;;;;;;;;5041958;28;20627;-72
2020/12/06 01:04:35;;;;;;;15.50;12.40;;;;;;;;;;5048880;28;20220;-72
2020/12/06 01:07:00;;;;;;;17.70;12.27;;;;;;;;;;5045599;28;20502;-72
2020/12/06 01:09:26;;;;;;;16.37;11.87;;;;;;;;;;5041050;28;20269;-72
2020/12/06 01:11:51;;;;;;;17.00;12.13;;;;;;;;;;5039358;28;20190;-72
2020/12/06 01:14:16;;;;;;;15.03;11.43;;;;;;;;;;5045666;28;20184;-72
2020/12/06 01:16:41;;;;;;;18.03;13.47;;;;;;;;;;5037459;28;20189;-72
2020/12/06 01:19:06;;;;;;;19.27;13.05;;;;;;;;;;5041772;28;20682;-72
2020/12/06 01:21:32;;;;;;;21.50;12.93;;;;;;;;;;5044081;28;20231;-72
2020/12/06 01:23:57;;;;;;;17.23;12.23;;;;;;;;;;5042281;28;20182;-72
2020/12/06 01:26:22;;;;;;;16.57;12.77;;;;;;;;;;5041333;28;20233;-72
2020/12/06 01:28:47;;;;;;;18.50;13.73;;;;;;;;;;5039323;28;20201;-72
2020/12/06 01:31:12;;;;;;;20.40;13.17;;;;;;;;;;5041269;28;20221;-72
2020/12/06 01:33:37;;;;;;;18.07;13.73;;;;;;;;;;5039211;28;20194;-72
2020/12/06 01:36:03;;;;;;;17.67;13.07;;;;;;;;;;5041375;28;20617;-72
2020/12/06 01:38:28;;;;;;;20.90;14.30;;;;;;;;;;5036170;28;20200;-72
2020/12/06 01:40:53;;;;;;;21.50;13.43;;;;;;;;;;5043658;28;20310;-72
2020/12/06 01:43:18;;;;;;;19.17;12.60;;;;;;;;;;5043716;28;20208;-72
2020/12/06 01:45:43;;;;;;;20.67;12.80;;;;;;;;;;5045054;28;20185;-72
2020/12/06 01:48:09;;;;;;;19.90;13.77;;;;;;;;;;5042724;28;20288;-72
2020/12/06 01:50:35;;;;;;;18.73;13.53;;;;;;;;;;5040555;28;20185;-72
2020/12/06 01:53:00;;;;;;;19.07;13.37;;;;;;;;;;5040202;28;20252;-72
2020/12/06 01:55:26;;;;;;;19.37;14.57;;;;;;;;;;5046319;28;20267;-72
2020/12/06 01:57:51;;;;;;;22.53;14.30;;;;;;;;;;5049896;28;20213;-72
2020/12/06 02:00:16;;;;;;;20.50;13.73;;;;;;;;;;5043188;28;20203;-72
2020/12/06 02:02:41;;;;;;;21.33;14.87;;;;;;;;;;5043466;28;20205;-72
2020/12/06 02:05:07;;;;;;;21.70;13.93;;;;;;;;;;5041829;28;20177;-72
2020/12/06 02:07:32;;;;;;;19.00;13.40;;;;;;;;;;5036339;28;20182;-72
2020/12/06 02:09:58;;;;;;;19.60;13.43;;;;;;;;;;5036219;28;20687;-72
2020/12/06 02:12:23;;;;;;;18.43;14.60;;;;;;;;;;5041336;28;20224;-72
2020/12/06 02:14:48;;;;;;;22.47;14.80;;;;;;;;;;5040625;28;20173;-72
2020/12/06 02:17:14;;;;;;;20.20;15.63;;;;;;;;;;5037850;28;20614;-72
2020/12/06 02:19:39;;;;;;;21.30;14.53;;;;;;;;;;5050224;28;20201;-72
2020/12/06 02:22:04;;;;;;;19.53;15.00;;;;;;;;;;5042662;28;20624;-72
2020/12/06 02:24:29;;;;;;;21.43;14.67;;;;;;;;;;5048231;28;20195;-72
2020/12/06 02:26:54;;;;;;;20.07;14.80;;;;;;;;;;5051505;28;20174;-72
2020/12/06 02:29:20;;;;;;;26.47;16.33;;;;;;;;;;5045790;28;20213;-72
2020/12/06 02:31:45;;;;;;;21.83;14.13;;;;;;;;;;5048858;28;20174;-72
2020/12/06 02:34:11;;;;;;;21.20;15.30;;;;;;;;;;5041471;28;20605;-72
2020/12/06 02:36:37;;;;;;;23.80;15.03;;;;;;;;;;5048529;28;20655;-72
2020/12/06 02:39:03;;;;;;;20.97;14.43;;;;;;;;;;5042824;28;20242;-72
2020/12/06 02:41:38;;;;;;;25.80;16.97;;;;;;;;;;5045984;28;20685;-72
2020/12/06 02:44:04;;;;;;;24.43;15.90;;;;;;;;;;5044870;28;20576;-72
2020/12/06 02:46:29;;;;;;;26.57;17.03;;;;;;;;;;5050342;28;20178;-72
2020/12/06 02:48:55;;;;;;;24.03;17.70;;;;;;;;;;5049975;28;20255;-72
2020/12/06 02:51:20;;;;;;;27.40;17.33;;;;;;;;;;5052197;28;20174;-72
2020/12/06 02:53:45;;;;;;;27.03;17.03;;;;;;;;;;5049538;28;20251;-72
2020/12/06 02:56:10;;;;;;;25.67;17.33;;;;;;;;;;5041861;28;20174;-72
2020/12/06 02:58:35;;;;;;;28.27;18.50;;;;;;;;;;5052692;28;20213;-73
2020/12/06 03:01:00;;;;;;;26.40;17.67;;;;;;;;;;5050684;28;20174;-72
2020/12/06 03:03:26;;;;;;;28.60;17.87;;;;;;;;;;5044611;28;20698;-72
2020/12/06 03:05:51;;;;;;;27.20;18.70;;;;;;;;;;5045651;28;20178;-72
2020/12/06 03:08:16;;;;;;;25.27;17.87;;;;;;;;;;5042634;28;20179;-72
2020/12/06 03:10:41;;;;;;;25.63;17.93;;;;;;;;;;5048972;28;20600;-72
2020/12/06 03:13:06;;;;;;;25.60;17.17;;;;;;;;;;5053242;28;20249;-72
2020/12/06 03:15:31;;;;;;;29.60;18.50;;;;;;;;;;5047686;28;20178;-72
2020/12/06 03:17:57;;;;;;;30.90;18.13;;;;;;;;;;5047838;28;20296;-72
2020/12/06 03:20:22;;;;;;;29.13;19.27;;;;;;;;;;5039997;28;20487;-72
2020/12/06 03:22:47;;;;;;;31.13;19.27;;;;;;;;;;5049352;28;20203;-72
2020/12/06 03:25:12;;;;;;;29.97;19.17;;;;;;;;;;5057044;28;20195;-72
2020/12/06 03:27:37;;;;;;;26.33;18.83;;;;;;;;;;5047916;28;20543;-72
2020/12/06 03:30:03;;;;;;;28.10;19.90;;;;;;;;;;5049402;28;20178;-73
2020/12/06 03:32:28;;;;;;;25.50;18.70;;;;;;;;;;5036373;28;20280;-72
2020/12/06 03:34:53;;;;;;;26.93;19.10;;;;;;;;;;5048046;28;20331;-72
2020/12/06 03:37:18;;;;;;;26.37;18.30;;;;;;;;;;5047847;28;20182;-72
2020/12/06 03:39:43;;;;;;;26.83;18.53;;;;;;;;;;5052605;28;20185;-72
2020/12/06 03:42:08;;;;;;;30.03;18.87;;;;;;;;;;5044914;28;20200;-72
2020/12/06 03:44:34;;;;;;;30.30;19.77;;;;;;;;;;5048701;28;20181;-72
2020/12/06 03:46:59;;;;;;;27.80;18.67;;;;;;;;;;5046743;28;20273;-72
2020/12/06 03:49:25;;;;;;;28.87;19.53;;;;;;;;;;5051133;28;20186;-72
2020/12/06 03:51:50;;;;;;;29.27;18.90;;;;;;;;;;5049579;28;20225;-72
2020/12/06 03:54:15;;;;;;;26.73;18.33;;;;;;;;;;5047945;28;20639;-72
2020/12/06 03:56:40;;;;;;;24.87;18.23;;;;;;;;;;5049242;28;20206;-72
2020/12/06 03:59:05;;;;;;;26.00;18.20;;;;;;;;;;5048177;28;20679;-72
2020/12/06 04:01:30;;;;;;;26.43;18.30;;;;;;;;;;5047709;28;20205;-72
2020/12/06 04:03:55;;;;;;;22.97;16.70;;;;;;;;;;5040890;28;20639;-72
2020/12/06 04:06:21;;;;;;;25.30;18.07;;;;;;;;;;5041903;28;20178;-72
2020/12/06 04:08:46;;;;;;;27.33;18.30;;;;;;;;;;5043547;28;20665;-72
2020/12/06 04:11:11;;;;;;;27.20;18.00;;;;;;;;;;5048514;28;20177;-72
2020/12/06 04:13:36;;;;;;;24.77;16.77;;;;;;;;;;5047844;28;20209;-72
2020/12/06 04:16:01;;;;;;;29.67;19.20;;;;;;;;;;5050276;28;20182;-72
2020/12/06 04:18:26;;;;;;;29.33;18.47;;;;;;;;;;5051726;28;20258;-72
2020/12/06 04:20:52;;;;;;;26.43;18.67;;;;;;;;;;5040740;28;20182;-72
2020/12/06 04:23:17;;;;;;;26.23;18.00;;;;;;;;;;5051613;28;20196;-72
2020/12/06 04:25:42;;;;;;;27.63;19.00;;;;;;;;;;5050898;28;20291;-72
2020/12/06 04:28:10;;;;;;;25.63;16.90;;;;;;;;;;5049269;28;20182;-72
2020/12/06 04:30:35;;;;;;;29.77;18.50;;;;;;;;;;5048408;28;20611;-72
2020/12/06 04:33:01;;;;;;;29.30;19.43;;;;;;;;;;5047897;28;20789;-72
2020/12/06 04:35:26;;;;;;;28.10;18.93;;;;;;;;;;5049337;28;20264;-72
2020/12/06 04:37:51;;;;;;;28.57;19.67;;;;;;;;;;5043933;28;20198;-72
2020/12/06 04:40:17;;;;;;;27.60;18.97;;;;;;;;;;5039635;28;20239;-72
2020/12/06 04:42:42;;;;;;;28.47;20.10;;;;;;;;;;5040922;28;20525;-72
2020/12/06 04:45:07;;;;;;;29.17;18.93;;;;;;;;;;5044111;28;20180;-72
2020/12/06 04:47:51;;;;;;;29.00;18.57;;;;;;;;;;5043190;28;20189;-72
2020/12/06 04:50:30;;;;;;;26.07;18.90;;;;;;;;;;5042096;28;20213;-72
2020/12/06 04:52:56;;;;;;;29.50;19.33;;;;;;;;;;5048057;28;20193;-72
2020/12/06 04:55:24;;;;;;;29.47;19.67;;;;;;;;;;5043449;28;20385;-72
2020/12/06 04:57:50;;;;;;;34.47;20.23;;;;;;;;;;5051580;28;20251;-72
2020/12/06 05:00:16;;;;;;;28.73;19.57;;;;;;;;;;5047346;28;20181;-72
2020/12/06 05:02:45;;;;;;;30.57;20.37;;;;;;;;;;5045348;28;20566;-72
2020/12/06 05:05:13;;;;;;;29.83;20.13;;;;;;;;;;5037667;28;20182;-72
2020/12/06 05:07:38;;;;;;;33.10;21.87;;;;;;;;;;5044370;28;20179;-72
2020/12/06 05:10:03;;;;;;;34.53;20.33;;;;;;;;;;5040011;28;20264;-72
2020/12/06 05:12:29;;;;;;;29.20;20.70;;;;;;;;;;5047622;28;20233;-72
2020/12/06 05:14:54;;;;;;;33.40;21.63;;;;;;;;;;5041792;28;20570;-72
2020/12/06 05:17:19;;;;;;;30.93;21.10;;;;;;;;;;5041291;28;20190;-72
2020/12/06 05:19:45;;;;;;;32.83;21.80;;;;;;;;;;5049833;28;20177;-72
2020/12/06 05:22:10;;;;;;;32.63;21.03;;;;;;;;;;5035846;28;20198;-72
2020/12/06 05:24:35;;;;;;;30.23;21.27;;;;;;;;;;5049323;28;20272;-72
2020/12/06 05:27:01;;;;;;;30.83;21.10;;;;;;;;;;5041760;28;20182;-72
2020/12/06 05:29:26;;;;;;;35.13;22.13;;;;;;;;;;5042196;28;20223;-72
2020/12/06 05:31:54;;;;;;;29.63;20.53;;;;;;;;;;5049859;28;20572;-72
2020/12/06 05:34:19;;;;;;;34.23;22.17;;;;;;;;;;5046934;28;20232;-72
2020/12/06 05:36:44;;;;;;;32.47;22.07;;;;;;;;;;5041566;28;20174;-72
2020/12/06 05:39:10;;;;;;;34.43;21.20;;;;;;;;;;5043792;28;20208;-72
2020/12/06 05:41:35;;;;;;;34.80;21.10;;;;;;;;;;5037983;28;20186;-72
2020/12/06 05:44:02;;;;;;;30.03;20.80;;;;;;;;;;5042311;28;20185;-72
2020/12/06 05:46:31;;;;;;;33.67;21.47;;;;;;;;;;5041369;28;20178;-72
2020/12/06 05:48:56;;;;;;;34.03;21.97;;;;;;;;;;5044520;28;20192;-72
2020/12/06 05:51:21;;;;;;;32.10;21.00;;;;;;;;;;5038251;28;20178;-72
2020/12/06 05:53:47;;;;;;;31.53;22.67;;;;;;;;;;5042026;28;20609;-72
2020/12/06 05:56:15;;;;;;;32.57;20.23;;;;;;;;;;5046519;28;20193;-72
2020/12/06 05:58:42;;;;;;;31.53;20.43;;;;;;;;;;5044627;28;20233;-72
2020/12/06 06:01:07;;;;;;;31.83;21.67;;;;;;;;;;5040344;28;20178;-72
2020/12/06 06:03:36;;;;;;;32.17;21.03;;;;;;;;;;5048068;28;20740;-72
2020/12/06 06:06:02;;;;;;;34.17;21.17;;;;;;;;;;5038018;28;20175;-72
2020/12/06 06:08:28;;;;;;;33.07;20.40;;;;;;;;;;5046933;28;20196;-72
2020/12/06 06:11:23;;;;;;;32.83;21.80;;;;;;;;;;5042163;28;20554;-73
2020/12/06 06:13:52;;;;;;;32.23;20.47;;;;;;;;;;5047300;28;20586;-73
2020/12/06 06:16:18;;;;;;;29.00;20.13;;;;;;;;;;5055956;28;20177;-72
2020/12/06 06:18:44;;;;;;;28.87;20.67;;;;;;;;;;5044063;28;20209;-72
2020/12/06 06:21:09;;;;;;;30.57;20.40;;;;;;;;;;5045099;28;20231;-72
2020/12/06 06:23:35;;;;;;;30.33;20.97;;;;;;;;;;5049068;28;20193;-72
2020/12/06 06:26:00;;;;;;;30.23;19.77;;;;;;;;;;5051779;28;20208;-72
2020/12/06 06:28:25;;;;;;;27.67;19.43;;;;;;;;;;5054181;28;20187;-72
2020/12/06 06:30:50;;;;;;;34.77;20.70;;;;;;;;;;5052212;28;20205;-72
2020/12/06 06:33:19;;;;;;;31.77;19.23;;;;;;;;;;5053588;28;20694;-72
2020/12/06 06:35:46;;;;;;;29.53;19.27;;;;;;;;;;5051162;28;20678;-73
2020/12/06 06:38:11;;;;;;;29.07;19.47;;;;;;;;;;5048048;28;20202;-72
2020/12/06 06:40:37;;;;;;;26.63;19.17;;;;;;;;;;5041917;28;20169;-72
2020/12/06 06:43:05;;;;;;;28.77;19.60;;;;;;;;;;5042730;28;20576;-72
2020/12/06 06:45:42;;;;;;;30.33;19.23;;;;;;;;;;5043401;28;20170;-72
2020/12/06 06:48:07;;;;;;;29.93;19.23;;;;;;;;;;5042341;28;20186;-72
2020/12/06 06:50:33;;;;;;;25.97;18.67;;;;;;;;;;5044192;28;20185;-73
2020/12/06 06:53:01;;;;;;;28.87;19.20;;;;;;;;;;5048180;28;20244;-73
2020/12/06 06:55:26;;;;;;;29.40;20.10;;;;;;;;;;5044786;28;20193;-72
2020/12/06 06:57:51;;;;;;;28.23;18.60;;;;;;;;;;5052399;28;20205;-72
2020/12/06 07:00:17;;;;;;;27.93;19.43;;;;;;;;;;5048136;28;20652;-72
2020/12/06 07:02:42;;;;;;;23.70;18.50;;;;;;;;;;5041479;28;20209;-72
2020/12/06 07:05:14;;;;;;;28.13;20.00;;;;;;;;;;5044852;28;20174;-72
2020/12/06 07:07:43;;;;;;;27.30;18.97;;;;;;;;;;5043937;28;20176;-72
2020/12/06 07:10:09;;;;;;;27.10;19.13;;;;;;;;;;5047061;28;20551;-72
2020/12/06 07:12:37;;;;;;;26.90;17.67;;;;;;;;;;5051190;28;20205;-72
2020/12/06 07:15:05;;;;;;;26.83;19.60;;;;;;;;;;5044811;28;20182;-72
2020/12/06 07:17:30;;;;;;;28.13;19.23;;;;;;;;;;5038775;28;20175;-72
2020/12/06 07:19:55;;;;;;;27.03;19.57;;;;;;;;;;5042447;28;20606;-72
2020/12/06 07:22:20;;;;;;;27.45;20.40;;;;;;;;;;5046270;28;20276;-72
2020/12/06 07:24:45;;;;;;;28.73;19.07;;;;;;;;;;5044154;28;20174;-72
2020/12/06 07:27:12;;;;;;;25.47;17.17;;;;;;;;;;5046291;28;20185;-72
2020/12/06 07:29:40;;;;;;;24.93;18.63;;;;;;;;;;5040332;28;20174;-72
2020/12/06 07:32:05;;;;;;;27.03;17.47;;;;;;;;;;5041588;28;20210;-72
2020/12/06 07:34:31;;;;;;;24.50;17.93;;;;;;;;;;5044345;28;20182;-72
2020/12/06 07:36:56;;;;;;;25.20;18.27;;;;;;;;;;5040895;28;20280;-72
2020/12/06 07:39:21;;;;;;;22.77;16.77;;;;;;;;;;5040042;28;20198;-72
2020/12/06 07:41:49;;;;;;;27.33;17.77;;;;;;;;;;5037473;28;20178;-72
2020/12/06 07:44:15;;;;;;;22.67;16.87;;;;;;;;;;5038998;28;20608;-72
2020/12/06 07:46:40;;;;;;;26.60;18.63;;;;;;;;;;5042094;28;20178;-72
2020/12/06 07:49:06;;;;;;;26.93;17.97;;;;;;;;;;5041449;28;20174;-72
2020/12/06 07:51:31;;;;;;;22.97;17.00;;;;;;;;;;5036696;28;20644;-72
2020/12/06 07:53:56;;;;;;;23.40;16.80;;;;;;;;;;5043782;28;20178;-72
2020/12/06 07:56:23;;;;;;;24.47;18.43;;;;;;;;;;5041409;28;20171;-72
2020/12/06 07:59:11;;;;;;;26.60;18.23;;;;;;;;;;5045931;28;20698;-72
2020/12/06 08:01:36;;;;;;;23.50;16.57;;;;;;;;;;5045506;28;20634;-72
2020/12/06 08:04:02;;;;;;;28.07;19.33;;;;;;;;;;5040239;28;20182;-72
2020/12/06 08:06:28;;;;;;;25.13;18.17;;;;;;;;;;5044576;28;20613;-72
2020/12/06 08:08:56;;;;;;;21.53;16.80;;;;;;;;;;5046481;28;20186;-72
2020/12/06 08:11:26;;;;;;;22.33;16.67;;;;;;;;;;5047061;28;20666;-72
2020/12/06 08:13:52;;;;;;;23.43;17.30;;;;;;;;;;5043040;28;20218;-72
2020/12/06 08:16:17;;;;;;;24.50;16.60;;;;;;;;;;5042457;28;20182;-72
2020/12/06 08:18:43;;;;;;;23.80;17.07;;;;;;;;;;5039614;28;20256;-72
2020/12/06 08:21:08;;;;;;;22.07;17.47;;;;;;;;;;5046124;28;20184;-73
2020/12/06 08:23:36;;;;;;;24.63;17.40;;;;;;;;;;5043322;28;20197;-74
2020/12/06 08:26:01;;;;;;;25.87;18.27;;;;;;;;;;5041661;28;20177;-72
2020/12/06 08:28:26;;;;;;;25.33;17.00;;;;;;;;;;5044524;28;20178;-72
2020/12/06 08:30:51;;;;;;;26.87;17.43;;;;;;;;;;5046577;28;20184;-72
2020/12/06 08:33:27;;;;;;;21.43;16.10;;;;;;;;;;5042301;28;20217;-75
2020/12/06 08:35:53;;;;;;;22.60;17.60;;;;;;;;;;5045737;28;20181;-73
2020/12/06 08:38:25;;;;;;;23.43;16.93;;;;;;;;;;5042194;28;20686;-72
2020/12/06 08:41:09;;;;;;;20.93;16.67;;;;;;;;;;5041729;28;20985;-72
2020/12/06 08:43:40;;;;;;;24.00;17.23;;;;;;;;;;5035727;28;20223;-72
2020/12/06 08:46:06;;;;;;;22.13;17.40;;;;;;;;;;5043043;28;20558;-72
2020/12/06 08:48:31;;;;;;;22.50;15.87;;;;;;;;;;5040886;28;20178;-72
2020/12/06 08:50:56;;;;;;;21.57;17.27;;;;;;;;;;5051176;28;20724;-72
2020/12/06 08:53:22;;;;;;;23.80;16.80;;;;;;;;;;5045784;28;20675;-72
2020/12/06 08:55:47;;;;;;;22.05;16.52;;;;;;;;;;5040174;28;20175;-72
2020/12/06 08:58:26;;;;;;;24.17;16.80;;;;;;;;;;5042171;28;20205;-72
2020/12/06 09:00:51;;;;;;;21.20;16.33;;;;;;;;;;5044488;28;20184;-73
2020/12/06 09:03:16;;;;;;;23.53;16.27;;;;;;;;;;5037986;28;20536;-72
2020/12/06 09:05:45;;;;;;;21.43;17.37;;;;;;;;;;5045879;28;20256;-72
2020/12/06 09:08:10;;;;;;;23.27;17.20;;;;;;;;;;5039134;28;20572;-72
2020/12/06 09:10:35;;;;;;;23.53;16.70;;;;;;;;;;5043933;28;20282;-72
2020/12/06 09:13:00;;;;;;;23.10;17.67;;;;;;;;;;5055067;28;20220;-72
2020/12/06 09:15:25;;;;;;;25.23;17.57;;;;;;;;;;5038432;28;20543;-72
2020/12/06 09:17:50;;;;;;;21.50;16.63;;;;;;;;;;5052110;28;20219;-72
2020/12/06 09:20:15;;;;;;;23.90;16.27;;;;;;;;;;5045013;28;20647;-73
2020/12/06 09:22:41;;;;;;;21.67;17.00;;;;;;;;;;5047577;28;20194;-73
2020/12/06 09:25:06;;;;;;;26.90;17.70;;;;;;;;;;5042118;28;20643;-73
2020/12/06 09:27:31;;;;;;;23.07;16.43;;;;;;;;;;5045960;28;20197;-73
2020/12/06 09:29:56;;;;;;;24.33;17.20;;;;;;;;;;5040237;28;20189;-73
2020/12/06 09:32:21;;;;;;;23.43;17.80;;;;;;;;;;5042471;28;20578;-73
2020/12/06 09:34:46;;;;;;;24.23;17.85;;;;;;;;;;5043673;28;20186;-73
2020/12/06 09:37:12;;;;;;;24.83;18.10;;;;;;;;;;5040096;28;20590;-73
2020/12/06 09:39:37;;;;;;;26.10;18.07;;;;;;;;;;5041508;28;20682;-73
2020/12/06 09:42:02;;;;;;;26.43;18.43;;;;;;;;;;5044602;28;20228;-73
2020/12/06 09:44:27;;;;;;;24.80;17.93;;;;;;;;;;5047989;28;20654;-73
2020/12/06 09:46:52;;;;;;;27.00;19.50;;;;;;;;;;5043088;28;20201;-73
2020/12/06 09:49:18;;;;;;;23.40;16.97;;;;;;;;;;5047946;28;20510;-73
2020/12/06 09:51:43;;;;;;;23.87;17.70;;;;;;;;;;5040320;28;20177;-73
2020/12/06 09:54:08;;;;;;;26.33;18.23;;;;;;;;;;5037991;28;20218;-73
2020/12/06 09:56:33;;;;;;;22.50;17.20;;;;;;;;;;5046425;28;20560;-73
2020/12/06 09:58:58;;;;;;;22.23;16.80;;;;;;;;;;5048008;28;20196;-73
2020/12/06 10:01:24;;;;;;;23.07;17.30;;;;;;;;;;5048725;28;20209;-73
2020/12/06 10:03:50;;;;;;;24.80;18.03;;;;;;;;;;5043113;28;20205;-73
2020/12/06 10:06:20;;;;;;;22.63;16.60;;;;;;;;;;5043286;28;20178;-73
2020/12/06 10:08:46;;;;;;;23.37;17.77;;;;;;;;;;5047256;28;20257;-73
2020/12/06 10:11:11;;;;;;;22.60;18.20;;;;;;;;;;5043738;28;20221;-74
2020/12/06 10:13:36;;;;;;;26.93;17.07;;;;;;;;;;5046883;28;20239;-73
2020/12/06 10:16:01;;;;;;;25.03;17.93;;;;;;;;;;5047729;28;20311;-71
2020/12/06 10:18:26;;;;;;;24.13;16.63;;;;;;;;;;5047379;28;20200;-72
2020/12/06 10:20:52;;;;;;;25.93;18.07;;;;;;;;;;5042583;28;20595;-72
2020/12/06 10:23:17;;;;;;;23.13;17.00;;;;;;;;;;5041619;28;20687;-73
2020/12/06 10:25:42;;;;;;;22.93;17.23;;;;;;;;;;5043267;28;20211;-73
2020/12/06 10:28:07;;;;;;;23.80;17.87;;;;;;;;;;5049055;28;20182;-73
2020/12/06 10:30:32;;;;;;;25.13;17.53;;;;;;;;;;5049388;28;20545;-73
2020/12/06 10:32:59;;;;;;;21.10;16.43;;;;;;;;;;5044476;28;20288;-73
2020/12/06 10:35:24;;;;;;;23.10;18.40;;;;;;;;;;5047546;28;20239;-73
2020/12/06 10:37:49;;;;;;;21.83;15.97;;;;;;;;;;5050399;28;20209;-73
2020/12/06 10:40:14;;;;;;;22.93;17.40;;;;;;;;;;5041400;28;20638;-73
2020/12/06 10:42:39;;;;;;;21.13;17.17;;;;;;;;;;5046585;28;20292;-73
2020/12/06 10:45:05;;;;;;;22.90;16.90;;;;;;;;;;5045576;28;20227;-73
2020/12/06 10:47:30;;;;;;;23.87;16.80;;;;;;;;;;5047205;28;20323;-73
2020/12/06 10:49:55;;;;;;;25.13;17.17;;;;;;;;;;5047074;28;20590;-73
2020/12/06 10:52:20;;;;;;;22.77;16.70;;;;;;;;;;5045411;28;20225;-73
2020/12/06 10:54:45;;;;;;;21.27;16.90;;;;;;;;;;5046385;28;20197;-73
2020/12/06 10:57:11;;;;;;;22.83;17.17;;;;;;;;;;5038683;28;20574;-72
2020/12/06 10:59:36;;;;;;;22.30;17.33;;;;;;;;;;5044875;28;20287;-72
2020/12/06 11:02:01;;;;;;;23.00;16.37;;;;;;;;;;5038689;28;20205;-72
2020/12/06 11:04:26;;;;;;;24.17;17.03;;;;;;;;;;5042941;28;20261;-72
2020/12/06 11:06:52;;;;;;;22.47;16.00;;;;;;;;;;5044507;28;20178;-72
2020/12/06 11:09:17;;;;;;;23.97;15.90;;;;;;;;;;5041025;28;20185;-72
2020/12/06 11:11:42;;;;;;;20.33;15.67;;;;;;;;;;5040393;28;20753;-73
2020/12/06 11:14:07;;;;;;;23.13;17.20;;;;;;;;;;5047651;28;20316;-72
2020/12/06 11:16:32;;;;;;;24.30;17.07;;;;;;;;;;5045850;28;20187;-74
2020/12/06 11:18:58;;;;;;;22.87;17.07;;;;;;;;;;5044542;28;20691;-72
2020/12/06 11:21:23;;;;;;;22.73;17.23;;;;;;;;;;5048786;28;20174;-73
2020/12/06 11:23:54;;;;;;;21.70;15.80;;;;;;;;;;5040061;28;20687;-73
2020/12/06 11:26:20;;;;;;;23.37;16.47;;;;;;;;;;5045764;28;20174;-73
2020/12/06 11:28:46;;;;;;;23.63;17.40;;;;;;;;;;5048902;28;20170;-74
2020/12/06 11:31:11;;;;;;;23.50;16.53;;;;;;;;;;5044273;28;20171;-72
2020/12/06 11:33:36;;;;;;;23.73;16.93;;;;;;;;;;5041272;28;20271;-73
2020/12/06 11:36:02;;;;;;;24.47;16.27;;;;;;;;;;5041617;28;20174;-72
2020/12/06 11:38:27;;;;;;;21.47;16.17;;;;;;;;;;5041584;28;20247;-73
2020/12/06 11:40:52;;;;;;;22.00;17.27;;;;;;;;;;5041926;28;20214;-72
2020/12/06 11:43:17;;;;;;;21.87;16.83;;;;;;;;;;5046323;28;20214;-72
2020/12/06 11:45:42;;;;;;;24.33;18.53;;;;;;;;;;5047968;28;20186;-72
2020/12/06 11:48:08;;;;;;;22.97;17.20;;;;;;;;;;5047014;28;20186;-73
2020/12/06 11:50:33;;;;;;;23.03;17.90;;;;;;;;;;5044601;28;20185;-73
2020/12/06 11:52:59;;;;;;;21.83;15.83;;;;;;;;;;5041958;28;20206;-73
2020/12/06 11:55:24;;;;;;;21.43;17.23;;;;;;;;;;5040080;28;20190;-73
2020/12/06 11:57:49;;;;;;;21.43;16.53;;;;;;;;;;5040029;28;20194;-74
2020/12/06 12:00:14;;;;;;;22.60;16.40;;;;;;;;;;5045515;28;20380;-73
2020/12/06 12:02:39;;;;;;;21.90;16.97;;;;;;;;;;5043749;28;20189;-74
2020/12/06 12:05:05;;;;;;;22.17;16.30;;;;;;;;;;5041425;28;20233;-74
2020/12/06 12:07:31;;;;;;;22.10;16.27;;;;;;;;;;5046289;28;20639;-74
2020/12/06 12:09:56;;;;;;;24.70;17.93;;;;;;;;;;5043241;28;20216;-71
2020/12/06 12:12:21;;;;;;;23.17;17.17;;;;;;;;;;5042698;28;20216;-74
2020/12/06 12:14:46;;;;;;;24.50;17.37;;;;;;;;;;5039219;28;20194;-71
2020/12/06 12:17:11;;;;;;;22.80;16.80;;;;;;;;;;5052551;28;20170;-71
2020/12/06 12:19:37;;;;;;;21.53;17.20;;;;;;;;;;5039752;28;20206;-74
2020/12/06 12:22:02;;;;;;;24.33;17.80;;;;;;;;;;5044460;28;20197;-72
2020/12/06 12:24:28;;;;;;;21.93;16.97;;;;;;;;;;5038426;28;20709;-72
2020/12/06 12:26:57;;;;;;;22.80;16.70;;;;;;;;;;5045280;28;20176;-72
2020/12/06 12:29:22;;;;;;;23.37;17.37;;;;;;;;;;5045215;28;20187;-72
2020/12/06 12:31:47;;;;;;;21.30;16.77;;;;;;;;;;5045174;28;20246;-72
2020/12/06 12:34:12;;;;;;;22.87;16.80;;;;;;;;;;5046373;28;20211;-74
2020/12/06 12:36:41;;;;;;;22.50;16.67;;;;;;;;;;5049691;28;20686;-74
2020/12/06 12:39:07;;;;;;;22.63;17.87;;;;;;;;;;5040378;28;20206;-72
2020/12/06 12:41:34;;;;;;;23.90;17.00;;;;;;;;;;5044886;28;20189;-72
2020/12/06 12:44:00;;;;;;;20.63;15.83;;;;;;;;;;5042135;28;20240;-72
2020/12/06 12:46:25;;;;;;;20.73;16.97;;;;;;;;;;5037472;28;20272;-72
2020/12/06 12:48:50;;;;;;;21.83;16.70;;;;;;;;;;5047888;28;20559;-72
2020/12/06 12:51:16;;;;;;;22.67;17.00;;;;;;;;;;5045245;28;20182;-72
2020/12/06 12:53:41;;;;;;;22.47;17.80;;;;;;;;;;5042109;28;20198;-72
2020/12/06 12:56:06;;;;;;;22.63;17.23;;;;;;;;;;5040819;28;20717;-74
2020/12/06 12:58:31;;;;;;;22.43;16.93;;;;;;;;;;5045993;28;20212;-72
2020/12/06 13:00:57;;;;;;;20.93;17.33;;;;;;;;;;5037574;28;20264;-72
2020/12/06 13:03:22;;;;;;;23.03;17.27;;;;;;;;;;5043628;28;20290;-72
2020/12/06 13:05:47;;;;;;;22.50;17.10;;;;;;;;;;5040232;28;20261;-72
2020/12/06 13:08:12;;;;;;;24.17;18.33;;;;;;;;;;5043260;28;20702;-72
2020/12/06 13:10:37;;;;;;;21.83;16.57;;;;;;;;;;5042824;28;20300;-72
2020/12/06 13:13:03;;;;;;;22.50;17.50;;;;;;;;;;5041143;28;20210;-74
2020/12/06 13:15:28;;;;;;;24.05;17.60;;;;;;;;;;5035778;28;20189;-72
2020/12/06 13:17:53;;;;;;;20.27;16.50;;;;;;;;;;5044433;28;20598;-72
2020/12/06 13:20:18;;;;;;;21.87;17.27;;;;;;;;;;5038397;28;20186;-72
2020/12/06 13:22:44;;;;;;;20.73;17.63;;;;;;;;;;5039414;28;20233;-72
2020/12/06 13:25:09;;;;;;;22.13;17.13;;;;;;;;;;5044527;28;20305;-74
2020/12/06 13:27:34;;;;;;;23.43;18.40;;;;;;;;;;5042046;28;20224;-72
2020/12/06 13:30:00;;;;;;;22.97;16.43;;;;;;;;;;5040335;28;20178;-72
2020/12/06 13:32:25;;;;;;;19.80;15.60;;;;;;;;;;5040619;28;20205;-73
2020/12/06 13:34:50;;;;;;;19.60;15.93;;;;;;;;;;5043821;28;20277;-72
2020/12/06 13:37:16;;;;;;;22.27;16.57;;;;;;;;;;5036079;28;20182;-75
2020/12/06 13:39:42;;;;;;;22.50;17.20;;;;;;;;;;5044165;28;20198;-74
2020/12/06 13:42:07;;;;;;;22.10;17.30;;;;;;;;;;5043240;28;20198;-74
2020/12/06 13:44:32;;;;;;;25.00;17.37;;;;;;;;;;5042258;28;20177;-74
2020/12/06 13:46:57;;;;;;;23.43;17.63;;;;;;;;;;5039473;28;20194;-74
2020/12/06 13:49:22;;;;;;;27.13;17.73;;;;;;;;;;5039785;28;20205;-74
2020/12/06 13:51:49;;;;;;;25.23;17.83;;;;;;;;;;5040101;28;20248;-74
2020/12/06 13:54:14;;;;;;;22.57;17.33;;;;;;;;;;5044180;28;20652;-74
2020/12/06 13:56:39;;;;;;;29.77;18.13;;;;;;;;;;5045009;28;20181;-73
2020/12/06 13:59:04;;;;;;;20.17;15.57;;;;;;;;;;5041894;28;21084;-73
2020/12/06 14:01:29;;;;;;;21.27;16.67;;;;;;;;;;5047189;28;20320;-73
2020/12/06 14:03:55;;;;;;;22.40;17.13;;;;;;;;;;5047968;28;20319;-74
2020/12/06 14:06:20;;;;;;;23.00;17.43;;;;;;;;;;5037085;28;20178;-74
2020/12/06 14:08:45;;;;;;;24.40;18.40;;;;;;;;;;5043644;28;20316;-74